Terminal Aerodrome Forecast
Issued by NWS

Home | Current Version | Previous Version | Text Only | Print | Product List | Glossary On
Versions: 1 2 3 4 5 6 7 8 9 10 11
000
FTUS45 KTFX 281700
TAFLWT
TAF
KLWT 281733Z 2818/2918 29012G20KT P6SM SCT140
     FM290300 26010KT P6SM VCSH SCT050 BKN080
     FM291400 VRB05KT P6SM SCT120=

USA.gov is the U.S. government's official web portal to all federal, state and local government web resources and services.